Pagrindinis puslapis
METAR-TAF:

METAR-TAF

Oro uostai :

Dzaoudzi, Majotas

platuma: 12-48S, ilguma: 045-17E, Aukštis: 8 m

Dabartinis oras

Ataskaita buvo paskelbta 30 minutes, ne 04:30 UTC
Vėjas 16 kt iš Pietų
Temperatūra 26°C
Drėgmė 61%
Slėgis 1015 hPa
Matomumas 10 km arba daugiau
Mažai debesys ne aukštis 3300 ft

METAR: FMCZ 140430Z AUTO 17016KT 9999 FEW033 26/18 Q1015 NOSIG

Laikas: 08:00 (05:00 UTC)

Prognozė

Ataskaita buvo paskelbta 6 valandos ir 0 minutes, ne 23:00 UTC
Prognozė galioja nuo 14 metu 00 UTC su 14 metu 24 UTC
Vėjas 10 kt iš Pietų
Matomumas 10 km arba daugiau
Mažai debesys ne aukštis 2000 ft
Laikinai
nuo 14 metu 18 UTC su 14 metu 24 UTC
Matomumas: 4500 m
Išsisklaidę debesys ne aukštis 2000 ft, aukštai iškilę kamuoliniai debesys.
lietus

TAF: FMCZ 132300Z 1400/1424 18010KT 9999 FEW020 TEMPO 1418/1424 4500 SHRA SCT020TCU

Orai ataskaitas ir orų prognozės (METAR, TAF).

turimą stotys yra geltonos ir raudonos taškus žemėlapyje.

Perkelti pele per norėdami pamatyti stoties vardą.

Tada spustelėkite, norėdami matyti oro stebėjimo ir prognozės.

Norėdami pakeisti žemėlapį: spustelėkite ant žalios mygtukų su juodo kryžiaus žemyn,; žalią mygtuką su brūkšneliu, jei norite nutolinti; arba žalių rodyklių gretimoms žemėlapius.


METAR-TAF: